sensor_id;sensor_type;location;lat;lon;timestamp;pressure;altitude;pressure_sealevel;temperature;humidity
72721;BME280;60835;50.974;10.322;2023-02-03T00:01:47;97258.25;;;5.76;100.00
72721;BME280;60835;50.974;10.322;2023-02-03T00:04:13;97262.06;;;5.81;100.00
72721;BME280;60835;50.974;10.322;2023-02-03T00:06:41;97265.94;;;5.77;100.00
72721;BME280;60835;50.974;10.322;2023-02-03T00:09:08;97263.72;;;5.82;100.00
72721;BME280;60835;50.974;10.322;2023-02-03T00:11:34;97271.16;;;5.87;100.00
72721;BME280;60835;50.974;10.322;2023-02-03T00:14:01;97262.81;;;5.91;100.00
72721;BME280;60835;50.974;10.322;2023-02-03T00:16:28;97264.16;;;5.95;100.00
72721;BME280;60835;50.974;10.322;2023-02-03T00:18:55;97280.22;;;5.92;100.00
72721;BME280;60835;50.974;10.322;2023-02-03T00:21:21;97295.13;;;5.92;100.00
72721;BME280;60835;50.974;10.322;2023-02-03T00:23:47;97278.00;;;6.05;100.00
72721;BME280;60835;50.974;10.322;2023-02-03T00:26:15;97299.97;;;6.04;100.00
72721;BME280;60835;50.974;10.322;2023-02-03T00:28:42;97287.75;;;6.13;100.00
72721;BME280;60835;50.974;10.322;2023-02-03T00:31:20;97292.16;;;6.12;100.00
72721;BME280;60835;50.974;10.322;2023-02-03T00:33:52;97304.63;;;6.10;100.00
72721;BME280;60835;50.974;10.322;2023-02-03T00:36:19;97316.47;;;6.14;100.00
72721;BME280;60835;50.974;10.322;2023-02-03T00:38:45;97302.19;;;6.17;100.00
72721;BME280;60835;50.974;10.322;2023-02-03T00:41:12;97320.81;;;6.24;100.00
72721;BME280;60835;50.974;10.322;2023-02-03T00:43:38;97314.72;;;6.23;100.00
72721;BME280;60835;50.974;10.322;2023-02-03T00:46:05;97316.13;;;6.35;100.00
72721;BME280;60835;50.974;10.322;2023-02-03T00:48:31;97312.66;;;6.35;100.00
72721;BME280;60835;50.974;10.322;2023-02-03T00:50:58;97317.94;;;6.35;100.00
72721;BME280;60835;50.974;10.322;2023-02-03T00:53:24;97333.03;;;6.41;100.00
72721;BME280;60835;50.974;10.322;2023-02-03T00:55:51;97321.25;;;6.45;100.00
72721;BME280;60835;50.974;10.322;2023-02-03T00:58:17;97322.03;;;6.37;100.00
72721;BME280;60835;50.974;10.322;2023-02-03T01:00:44;97316.00;;;6.45;100.00
72721;BME280;60835;50.974;10.322;2023-02-03T01:03:10;97306.16;;;6.47;100.00
72721;BME280;60835;50.974;10.322;2023-02-03T01:05:37;97297.63;;;6.45;100.00
72721;BME280;60835;50.974;10.322;2023-02-03T01:08:03;97331.94;;;6.43;100.00
72721;BME280;60835;50.974;10.322;2023-02-03T01:10:30;97326.91;;;6.58;100.00
72721;BME280;60835;50.974;10.322;2023-02-03T01:12:56;97341.34;;;6.54;100.00
72721;BME280;60835;50.974;10.322;2023-02-03T01:15:23;97365.66;;;6.56;100.00
72721;BME280;60835;50.974;10.322;2023-02-03T01:17:49;97389.16;;;6.57;100.00
72721;BME280;60835;50.974;10.322;2023-02-03T01:20:16;97401.16;;;6.60;100.00
72721;BME280;60835;50.974;10.322;2023-02-03T01:22:42;97410.03;;;6.59;100.00
72721;BME280;60835;50.974;10.322;2023-02-03T01:25:09;97413.63;;;6.58;100.00
72721;BME280;60835;50.974;10.322;2023-02-03T01:27:35;97428.78;;;6.64;100.00
72721;BME280;60835;50.974;10.322;2023-02-03T01:30:02;97439.31;;;6.64;100.00
72721;BME280;60835;50.974;10.322;2023-02-03T01:32:29;97447.47;;;6.61;100.00
72721;BME280;60835;50.974;10.322;2023-02-03T01:34:55;97455.06;;;6.64;100.00
72721;BME280;60835;50.974;10.322;2023-02-03T01:37:22;97437.03;;;6.43;100.00
72721;BME280;60835;50.974;10.322;2023-02-03T01:39:48;97480.22;;;6.66;100.00
72721;BME280;60835;50.974;10.322;2023-02-03T01:42:15;97482.38;;;6.71;100.00
72721;BME280;60835;50.974;10.322;2023-02-03T01:52:31;97547.13;;;6.72;100.00
72721;BME280;60835;50.974;10.322;2023-02-03T01:54:59;97543.78;;;6.70;100.00
72721;BME280;60835;50.974;10.322;2023-02-03T01:57:37;97546.50;;;6.78;100.00
72721;BME280;60835;50.974;10.322;2023-02-03T02:00:06;97561.97;;;6.81;100.00
72721;BME280;60835;50.974;10.322;2023-02-03T02:02:33;97582.63;;;6.76;100.00
72721;BME280;60835;50.974;10.322;2023-02-03T02:05:15;97610.13;;;6.82;100.00
72721;BME280;60835;50.974;10.322;2023-02-03T02:07:46;97608.97;;;6.84;100.00
72721;BME280;60835;50.974;10.322;2023-02-03T02:10:14;97614.25;;;6.84;100.00
72721;BME280;60835;50.974;10.322;2023-02-03T02:12:41;97655.63;;;6.82;100.00
72721;BME280;60835;50.974;10.322;2023-02-03T02:15:08;97647.16;;;6.88;100.00
72721;BME280;60835;50.974;10.322;2023-02-03T02:20:24;97676.50;;;6.84;100.00
72721;BME280;60835;50.974;10.322;2023-02-03T02:23:19;97690.09;;;6.79;100.00
72721;BME280;60835;50.974;10.322;2023-02-03T02:32:13;97682.50;;;6.76;100.00
72721;BME280;60835;50.974;10.322;2023-02-03T02:34:38;97686.81;;;6.77;100.00
72721;BME280;60835;50.974;10.322;2023-02-03T02:37:18;97694.03;;;6.75;100.00
72721;BME280;60835;50.974;10.322;2023-02-03T02:42:32;97716.16;;;6.72;100.00
72721;BME280;60835;50.974;10.322;2023-02-03T02:45:14;97720.81;;;6.79;100.00
72721;BME280;60835;50.974;10.322;2023-02-03T02:47:42;97719.78;;;6.71;100.00
72721;BME280;60835;50.974;10.322;2023-02-03T02:50:18;97707.59;;;6.70;100.00
72721;BME280;60835;50.974;10.322;2023-02-03T02:52:47;97705.13;;;6.69;100.00
72721;BME280;60835;50.974;10.322;2023-02-03T02:55:30;97692.94;;;6.68;100.00
72721;BME280;60835;50.974;10.322;2023-02-03T02:58:02;97682.97;;;6.71;100.00
72721;BME280;60835;50.974;10.322;2023-02-03T03:00:33;97678.84;;;6.69;100.00
72721;BME280;60835;50.974;10.322;2023-02-03T03:03:11;97651.19;;;6.65;100.00
72721;BME280;60835;50.974;10.322;2023-02-03T03:05:41;97645.63;;;6.68;100.00
72721;BME280;60835;50.974;10.322;2023-02-03T03:08:10;97664.47;;;6.63;100.00
72721;BME280;60835;50.974;10.322;2023-02-03T03:10:40;97647.28;;;6.69;100.00
72721;BME280;60835;50.974;10.322;2023-02-03T03:13:10;97664.69;;;6.70;100.00
72721;BME280;60835;50.974;10.322;2023-02-03T03:15:39;97658.03;;;6.75;100.00
72721;BME280;60835;50.974;10.322;2023-02-03T03:18:12;97673.97;;;6.74;100.00
72721;BME280;60835;50.974;10.322;2023-02-03T03:20:42;97678.38;;;6.73;100.00
72721;BME280;60835;50.974;10.322;2023-02-03T03:23:15;97678.09;;;6.77;100.00
72721;BME280;60835;50.974;10.322;2023-02-03T03:25:52;97687.09;;;6.74;100.00
72721;BME280;60835;50.974;10.322;2023-02-03T03:28:24;97666.75;;;6.76;100.00
72721;BME280;60835;50.974;10.322;2023-02-03T03:30:53;97647.97;;;6.71;100.00
72721;BME280;60835;50.974;10.322;2023-02-03T03:33:20;97632.03;;;6.72;100.00
72721;BME280;60835;50.974;10.322;2023-02-03T03:36:31;97658.09;;;6.66;100.00
72721;BME280;60835;50.974;10.322;2023-02-03T03:38:59;97640.97;;;6.62;100.00
72721;BME280;60835;50.974;10.322;2023-02-03T03:41:54;97639.16;;;6.62;100.00
72721;BME280;60835;50.974;10.322;2023-02-03T03:44:25;97619.63;;;6.65;100.00
72721;BME280;60835;50.974;10.322;2023-02-03T03:47:16;97608.84;;;6.68;100.00
72721;BME280;60835;50.974;10.322;2023-02-03T03:49:46;97585.19;;;6.68;100.00
72721;BME280;60835;50.974;10.322;2023-02-03T03:52:17;97603.28;;;6.71;100.00
72721;BME280;60835;50.974;10.322;2023-02-03T03:54:45;97618.75;;;6.74;100.00
72721;BME280;60835;50.974;10.322;2023-02-03T03:57:18;97617.38;;;6.70;100.00
72721;BME280;60835;50.974;10.322;2023-02-03T03:59:47;97634.81;;;6.71;100.00
72721;BME280;60835;50.974;10.322;2023-02-03T04:02:16;97654.44;;;6.77;100.00
72721;BME280;60835;50.974;10.322;2023-02-03T04:04:45;97653.59;;;6.76;100.00
72721;BME280;60835;50.974;10.322;2023-02-03T04:07:12;97661.09;;;6.71;100.00
72721;BME280;60835;50.974;10.322;2023-02-03T04:09:39;97669.66;;;6.73;100.00
72721;BME280;60835;50.974;10.322;2023-02-03T04:12:15;97659.00;;;6.74;100.00
72721;BME280;60835;50.974;10.322;2023-02-03T04:14:45;97670.41;;;6.65;100.00
72721;BME280;60835;50.974;10.322;2023-02-03T04:17:11;97675.28;;;6.60;100.00
72721;BME280;60835;50.974;10.322;2023-02-03T04:19:38;97665.59;;;6.61;100.00
72721;BME280;60835;50.974;10.322;2023-02-03T04:22:04;97639.91;;;6.55;100.00
72721;BME280;60835;50.974;10.322;2023-02-03T04:24:31;97637.97;;;6.57;100.00
72721;BME280;60835;50.974;10.322;2023-02-03T04:26:58;97615.97;;;6.58;100.00
72721;BME280;60835;50.974;10.322;2023-02-03T04:29:24;97607.53;;;6.54;100.00
72721;BME280;60835;50.974;10.322;2023-02-03T04:31:51;97579.78;;;6.52;100.00
72721;BME280;60835;50.974;10.322;2023-02-03T04:34:17;97564.69;;;6.54;100.00
72721;BME280;60835;50.974;10.322;2023-02-03T04:36:44;97536.31;;;6.57;100.00
72721;BME280;60835;50.974;10.322;2023-02-03T04:39:10;97531.22;;;6.56;100.00
72721;BME280;60835;50.974;10.322;2023-02-03T04:41:36;97513.84;;;6.63;100.00
72721;BME280;60835;50.974;10.322;2023-02-03T04:44:03;97504.16;;;6.63;100.00
72721;BME280;60835;50.974;10.322;2023-02-03T04:46:30;97514.50;;;6.65;100.00
72721;BME280;60835;50.974;10.322;2023-02-03T04:48:56;97533.28;;;6.70;100.00
72721;BME280;60835;50.974;10.322;2023-02-03T04:51:22;97512.59;;;6.67;100.00
72721;BME280;60835;50.974;10.322;2023-02-03T04:53:49;97528.34;;;6.67;100.00
72721;BME280;60835;50.974;10.322;2023-02-03T04:56:16;97536.59;;;6.72;100.00
72721;BME280;60835;50.974;10.322;2023-02-03T04:58:42;97541.50;;;6.67;100.00
72721;BME280;60835;50.974;10.322;2023-02-03T05:01:09;97545.16;;;6.74;100.00
72721;BME280;60835;50.974;10.322;2023-02-03T05:03:35;97516.84;;;6.68;100.00
72721;BME280;60835;50.974;10.322;2023-02-03T05:06:02;97529.38;;;6.74;100.00
72721;BME280;60835;50.974;10.322;2023-02-03T05:08:30;97532.69;;;6.76;100.00
72721;BME280;60835;50.974;10.322;2023-02-03T05:10:57;97546.84;;;6.83;100.00
72721;BME280;60835;50.974;10.322;2023-02-03T05:13:27;97551.97;;;6.85;100.00
72721;BME280;60835;50.974;10.322;2023-02-03T05:15:53;97558.66;;;6.79;100.00
72721;BME280;60835;50.974;10.322;2023-02-03T05:18:20;97570.50;;;6.83;100.00
72721;BME280;60835;50.974;10.322;2023-02-03T05:20:46;97587.66;;;6.87;100.00
72721;BME280;60835;50.974;10.322;2023-02-03T05:23:12;97600.50;;;6.90;100.00
72721;BME280;60835;50.974;10.322;2023-02-03T05:25:39;97604.75;;;6.91;100.00
72721;BME280;60835;50.974;10.322;2023-02-03T05:28:05;97627.47;;;6.92;100.00
72721;BME280;60835;50.974;10.322;2023-02-03T05:30:32;97646.25;;;6.97;100.00
72721;BME280;60835;50.974;10.322;2023-02-03T05:32:58;97692.38;;;6.92;100.00
72721;BME280;60835;50.974;10.322;2023-02-03T05:35:25;97690.81;;;6.99;100.00
72721;BME280;60835;50.974;10.322;2023-02-03T05:37:51;97702.13;;;6.99;100.00
72721;BME280;60835;50.974;10.322;2023-02-03T05:40:18;97710.72;;;7.01;100.00
72721;BME280;60835;50.974;10.322;2023-02-03T05:43:03;97725.13;;;6.97;100.00
72721;BME280;60835;50.974;10.322;2023-02-03T05:45:30;97750.16;;;7.01;100.00
72721;BME280;60835;50.974;10.322;2023-02-03T05:47:57;97751.13;;;7.00;100.00
72721;BME280;60835;50.974;10.322;2023-02-03T05:50:23;97779.09;;;7.01;100.00
72721;BME280;60835;50.974;10.322;2023-02-03T05:52:52;97780.72;;;7.02;100.00
72721;BME280;60835;50.974;10.322;2023-02-03T05:55:19;97785.47;;;6.99;100.00
72721;BME280;60835;50.974;10.322;2023-02-03T05:57:45;97788.00;;;6.91;100.00
72721;BME280;60835;50.974;10.322;2023-02-03T06:00:12;97777.25;;;7.02;100.00
72721;BME280;60835;50.974;10.322;2023-02-03T06:02:39;97786.00;;;7.02;100.00
72721;BME280;60835;50.974;10.322;2023-02-03T06:05:06;97787.13;;;7.00;100.00
72721;BME280;60835;50.974;10.322;2023-02-03T06:07:33;97780.88;;;7.01;100.00
72721;BME280;60835;50.974;10.322;2023-02-03T06:09:59;97780.06;;;7.00;100.00
72721;BME280;60835;50.974;10.322;2023-02-03T06:12:26;97778.09;;;7.02;100.00
72721;BME280;60835;50.974;10.322;2023-02-03T06:14:54;97775.47;;;7.02;100.00
72721;BME280;60835;50.974;10.322;2023-02-03T06:17:21;97789.91;;;6.98;100.00
72721;BME280;60835;50.974;10.322;2023-02-03T06:19:47;97801.78;;;7.02;100.00
72721;BME280;60835;50.974;10.322;2023-02-03T06:22:14;97806.34;;;7.00;100.00
72721;BME280;60835;50.974;10.322;2023-02-03T06:24:40;97812.00;;;7.05;100.00
72721;BME280;60835;50.974;10.322;2023-02-03T06:27:06;97825.53;;;7.10;100.00
72721;BME280;60835;50.974;10.322;2023-02-03T06:29:33;97812.00;;;7.05;100.00
72721;BME280;60835;50.974;10.322;2023-02-03T06:32:00;97821.41;;;7.08;100.00
72721;BME280;60835;50.974;10.322;2023-02-03T06:34:26;97822.91;;;7.10;100.00
72721;BME280;60835;50.974;10.322;2023-02-03T06:36:53;97866.56;;;7.03;100.00
72721;BME280;60835;50.974;10.322;2023-02-03T06:39:19;97874.84;;;7.08;100.00
72721;BME280;60835;50.974;10.322;2023-02-03T06:41:46;97878.13;;;7.10;100.00
72721;BME280;60835;50.974;10.322;2023-02-03T06:44:12;97891.69;;;7.15;100.00
72721;BME280;60835;50.974;10.322;2023-02-03T06:46:38;97902.81;;;7.09;100.00
72721;BME280;60835;50.974;10.322;2023-02-03T06:49:05;97906.09;;;7.11;100.00
72721;BME280;60835;50.974;10.322;2023-02-03T06:51:31;97921.72;;;7.13;100.00
72721;BME280;60835;50.974;10.322;2023-02-03T06:53:58;97907.75;;;7.12;100.00
72721;BME280;60835;50.974;10.322;2023-02-03T06:56:25;97923.53;;;7.12;100.00
72721;BME280;60835;50.974;10.322;2023-02-03T06:58:51;97929.50;;;7.14;100.00
72721;BME280;60835;50.974;10.322;2023-02-03T07:01:18;97944.84;;;7.19;100.00
72721;BME280;60835;50.974;10.322;2023-02-03T07:03:44;97943.72;;;7.21;100.00
72721;BME280;60835;50.974;10.322;2023-02-03T07:06:12;97957.84;;;7.20;100.00
72721;BME280;60835;50.974;10.322;2023-02-03T07:08:42;97947.47;;;7.19;100.00
72721;BME280;60835;50.974;10.322;2023-02-03T07:11:09;97944.56;;;7.22;100.00
72721;BME280;60835;50.974;10.322;2023-02-03T07:13:35;97970.03;;;7.21;100.00
72721;BME280;60835;50.974;10.322;2023-02-03T07:16:02;97966.28;;;7.24;100.00
72721;BME280;60835;50.974;10.322;2023-02-03T07:18:28;97976.25;;;7.20;100.00
72721;BME280;60835;50.974;10.322;2023-02-03T07:21:13;97964.66;;;7.13;100.00
72721;BME280;60835;50.974;10.322;2023-02-03T07:23:41;97976.63;;;7.25;100.00
72721;BME280;60835;50.974;10.322;2023-02-03T07:26:09;97988.44;;;7.21;100.00
72721;BME280;60835;50.974;10.322;2023-02-03T07:28:36;97984.69;;;7.24;100.00
72721;BME280;60835;50.974;10.322;2023-02-03T07:31:02;97992.97;;;7.29;100.00
72721;BME280;60835;50.974;10.322;2023-02-03T07:33:36;97994.09;;;7.26;100.00
72721;BME280;60835;50.974;10.322;2023-02-03T07:36:04;98002.00;;;7.26;100.00
72721;BME280;60835;50.974;10.322;2023-02-03T07:38:31;98007.66;;;7.31;100.00
72721;BME280;60835;50.974;10.322;2023-02-03T07:40:57;98003.50;;;7.29;100.00
72721;BME280;60835;50.974;10.322;2023-02-03T07:43:24;98001.31;;;7.24;100.00
72721;BME280;60835;50.974;10.322;2023-02-03T07:45:50;98006.69;;;7.32;100.00
72721;BME280;60835;50.974;10.322;2023-02-03T07:48:17;98011.78;;;7.34;100.00
72721;BME280;60835;50.974;10.322;2023-02-03T07:50:49;98015.69;;;7.30;100.00
72721;BME280;60835;50.974;10.322;2023-02-03T07:53:18;98014.56;;;7.32;100.00
72721;BME280;60835;50.974;10.322;2023-02-03T07:55:44;98027.06;;;7.30;100.00
72721;BME280;60835;50.974;10.322;2023-02-03T07:58:11;98022.75;;;7.29;100.00
72721;BME280;60835;50.974;10.322;2023-02-03T08:00:37;98015.81;;;7.28;100.00
72721;BME280;60835;50.974;10.322;2023-02-03T08:03:04;98013.47;;;7.25;100.00
72721;BME280;60835;50.974;10.322;2023-02-03T08:05:30;98011.56;;;7.27;100.00
72721;BME280;60835;50.974;10.322;2023-02-03T08:07:57;98014.84;;;7.29;100.00
72721;BME280;60835;50.974;10.322;2023-02-03T08:10:24;98020.41;;;7.26;100.00
72721;BME280;60835;50.974;10.322;2023-02-03T08:12:53;98017.09;;;7.24;100.00
72721;BME280;60835;50.974;10.322;2023-02-03T08:15:20;98004.63;;;7.26;100.00
72721;BME280;60835;50.974;10.322;2023-02-03T08:17:51;98016.09;;;7.25;100.00
72721;BME280;60835;50.974;10.322;2023-02-03T08:20:18;98003.25;;;7.22;100.00
72721;BME280;60835;50.974;10.322;2023-02-03T08:22:44;97997.16;;;7.22;100.00
72721;BME280;60835;50.974;10.322;2023-02-03T08:25:11;98001.59;;;7.21;100.00
72721;BME280;60835;50.974;10.322;2023-02-03T08:27:38;97976.50;;;7.27;100.00
72721;BME280;60835;50.974;10.322;2023-02-03T08:30:07;97983.84;;;7.23;100.00
72721;BME280;60835;50.974;10.322;2023-02-03T08:32:34;97979.88;;;7.19;100.00
72721;BME280;60835;50.974;10.322;2023-02-03T08:35:01;97975.97;;;7.23;100.00
72721;BME280;60835;50.974;10.322;2023-02-03T08:37:27;97987.47;;;7.22;100.00
72721;BME280;60835;50.974;10.322;2023-02-03T08:39:58;97993.03;;;7.19;100.00
72721;BME280;60835;50.974;10.322;2023-02-03T08:42:25;97980.84;;;7.18;100.00
72721;BME280;60835;50.974;10.322;2023-02-03T08:44:51;97964.22;;;7.18;100.00
72721;BME280;60835;50.974;10.322;2023-02-03T08:47:18;97967.97;;;7.15;100.00
72721;BME280;60835;50.974;10.322;2023-02-03T08:49:44;97952.06;;;7.17;100.00
72721;BME280;60835;50.974;10.322;2023-02-03T08:52:12;97946.19;;;7.23;100.00
72721;BME280;60835;50.974;10.322;2023-02-03T08:54:38;97940.69;;;7.16;100.00
72721;BME280;60835;50.974;10.322;2023-02-03T08:57:06;97947.69;;;7.25;100.00
72721;BME280;60835;50.974;10.322;2023-02-03T08:59:34;97952.28;;;7.23;100.00
72721;BME280;60835;50.974;10.322;2023-02-03T09:02:02;97943.44;;;7.24;100.00
72721;BME280;60835;50.974;10.322;2023-02-03T09:04:30;97949.53;;;7.25;100.00
72721;BME280;60835;50.974;10.322;2023-02-03T09:06:59;97941.88;;;7.31;100.00
72721;BME280;60835;50.974;10.322;2023-02-03T09:09:26;97935.94;;;7.29;100.00
72721;BME280;60835;50.974;10.322;2023-02-03T09:11:54;97917.22;;;7.32;100.00
72721;BME280;60835;50.974;10.322;2023-02-03T09:14:31;97917.97;;;7.25;100.00
72721;BME280;60835;50.974;10.322;2023-02-03T09:16:59;97909.31;;;7.32;100.00
72721;BME280;60835;50.974;10.322;2023-02-03T09:19:26;97911.28;;;7.30;100.00
72721;BME280;60835;50.974;10.322;2023-02-03T09:21:52;97888.00;;;7.35;100.00
72721;BME280;60835;50.974;10.322;2023-02-03T09:24:19;97873.31;;;7.33;100.00
72721;BME280;60835;50.974;10.322;2023-02-03T09:26:46;97867.22;;;7.32;100.00
72721;BME280;60835;50.974;10.322;2023-02-03T09:29:12;97849.78;;;7.31;100.00
72721;BME280;60835;50.974;10.322;2023-02-03T09:31:39;97822.50;;;7.32;100.00
72721;BME280;60835;50.974;10.322;2023-02-03T09:34:06;97815.56;;;7.31;100.00
72721;BME280;60835;50.974;10.322;2023-02-03T09:36:32;97809.34;;;7.32;100.00
72721;BME280;60835;50.974;10.322;2023-02-03T09:38:59;97797.41;;;7.38;100.00
72721;BME280;60835;50.974;10.322;2023-02-03T09:44:26;97800.78;;;7.30;100.00
72721;BME280;60835;50.974;10.322;2023-02-03T09:47:03;97793.69;;;7.31;100.00
72721;BME280;60835;50.974;10.322;2023-02-03T09:49:42;97788.28;;;7.32;100.00
72721;BME280;60835;50.974;10.322;2023-02-03T09:52:17;97776.41;;;7.28;100.00
72721;BME280;60835;50.974;10.322;2023-02-03T09:54:49;97760.63;;;7.28;100.00
72721;BME280;60835;50.974;10.322;2023-02-03T09:57:25;97759.28;;;7.24;100.00
72721;BME280;60835;50.974;10.322;2023-02-03T09:59:56;97747.38;;;7.20;100.00
72721;BME280;60835;50.974;10.322;2023-02-03T10:02:31;97728.00;;;7.21;100.00
72721;BME280;60835;50.974;10.322;2023-02-03T10:05:16;97693.19;;;7.27;100.00
72721;BME280;60835;50.974;10.322;2023-02-03T10:08:01;97696.13;;;7.24;100.00
72721;BME280;60835;50.974;10.322;2023-02-03T10:10:39;97682.06;;;7.33;100.00
72721;BME280;60835;50.974;10.322;2023-02-03T10:18:33;97627.50;;;7.35;100.00
72721;BME280;60835;50.974;10.322;2023-02-03T10:23:51;97623.56;;;7.40;100.00
72721;BME280;60835;50.974;10.322;2023-02-03T10:26:23;97596.94;;;7.43;100.00
72721;BME280;60835;50.974;10.322;2023-02-03T10:29:02;97613.88;;;7.40;100.00
72721;BME280;60835;50.974;10.322;2023-02-03T10:31:34;97612.91;;;7.41;100.00
72721;BME280;60835;50.974;10.322;2023-02-03T10:34:09;97592.97;;;7.39;100.00
72721;BME280;60835;50.974;10.322;2023-02-03T10:36:46;97581.94;;;7.35;100.00
72721;BME280;60835;50.974;10.322;2023-02-03T10:39:31;97596.59;;;7.38;100.00
72721;BME280;60835;50.974;10.322;2023-02-03T10:41:59;97576.38;;;7.38;100.00
72721;BME280;60835;50.974;10.322;2023-02-03T10:44:35;97565.63;;;7.31;100.00
72721;BME280;60835;50.974;10.322;2023-02-03T10:47:37;97538.16;;;7.34;100.00
72721;BME280;60835;50.974;10.322;2023-02-03T10:50:05;97519.25;;;7.30;100.00
72721;BME280;60835;50.974;10.322;2023-02-03T10:52:34;97493.63;;;7.32;100.00
72721;BME280;60835;50.974;10.322;2023-02-03T10:58:07;97443.34;;;7.44;100.00
72721;BME280;60835;50.974;10.322;2023-02-03T11:00:37;97449.25;;;7.38;100.00
72721;BME280;60835;50.974;10.322;2023-02-03T11:03:07;97422.94;;;7.38;100.00
72721;BME280;60835;50.974;10.322;2023-02-03T11:05:41;97427.22;;;7.39;100.00
72721;BME280;60835;50.974;10.322;2023-02-03T11:08:14;97422.63;;;7.41;100.00
72721;BME280;60835;50.974;10.322;2023-02-03T11:10:44;97419.50;;;7.45;100.00
72721;BME280;60835;50.974;10.322;2023-02-03T11:21:30;97426.59;;;7.53;100.00
72721;BME280;60835;50.974;10.322;2023-02-03T11:24:05;97393.13;;;7.29;100.00
72721;BME280;60835;50.974;10.322;2023-02-03T11:26:39;97429.56;;;7.58;100.00
72721;BME280;60835;50.974;10.322;2023-02-03T11:29:15;97440.06;;;7.50;100.00
72721;BME280;60835;50.974;10.322;2023-02-03T11:31:46;97446.66;;;7.46;100.00
72721;BME280;60835;50.974;10.322;2023-02-03T11:34:16;97459.63;;;7.47;100.00
72721;BME280;60835;50.974;10.322;2023-02-03T11:36:44;97449.28;;;7.46;100.00
72721;BME280;60835;50.974;10.322;2023-02-03T11:39:23;97433.78;;;7.43;100.00
72721;BME280;60835;50.974;10.322;2023-02-03T11:41:51;97414.75;;;7.49;100.00
72721;BME280;60835;50.974;10.322;2023-02-03T11:44:25;97428.25;;;7.54;100.00
72721;BME280;60835;50.974;10.322;2023-02-03T11:46:58;97421.00;;;7.56;100.00
72721;BME280;60835;50.974;10.322;2023-02-03T11:52:35;97443.59;;;7.66;100.00
72721;BME280;60835;50.974;10.322;2023-02-03T11:58:12;97445.72;;;7.71;100.00
72721;BME280;60835;50.974;10.322;2023-02-03T12:03:29;97474.38;;;7.82;100.00
72721;BME280;60835;50.974;10.322;2023-02-03T12:11:48;97535.97;;;7.89;100.00
72721;BME280;60835;50.974;10.322;2023-02-03T12:17:25;97573.50;;;7.91;100.00
72721;BME280;60835;50.974;10.322;2023-02-03T12:23:14;97604.81;;;7.94;100.00
72721;BME280;60835;50.974;10.322;2023-02-03T12:26:11;97607.09;;;7.97;100.00
72721;BME280;60835;50.974;10.322;2023-02-03T12:29:00;97613.50;;;7.94;100.00
72721;BME280;60835;50.974;10.322;2023-02-03T12:31:43;97606.59;;;7.93;100.00
72721;BME280;60835;50.974;10.322;2023-02-03T12:34:25;97599.53;;;7.94;100.00
72721;BME280;60835;50.974;10.322;2023-02-03T12:37:00;97574.44;;;7.82;100.00
72721;BME280;60835;50.974;10.322;2023-02-03T12:39:34;97575.84;;;7.94;100.00
72721;BME280;60835;50.974;10.322;2023-02-03T12:42:16;97569.88;;;7.92;100.00
72721;BME280;60835;50.974;10.322;2023-02-03T12:47:43;97569.88;;;7.92;100.00
72721;BME280;60835;50.974;10.322;2023-02-03T12:50:19;97564.59;;;7.92;100.00
72721;BME280;60835;50.974;10.322;2023-02-03T12:52:54;97545.50;;;7.90;100.00
72721;BME280;60835;50.974;10.322;2023-02-03T12:58:18;97536.13;;;7.87;100.00
72721;BME280;60835;50.974;10.322;2023-02-03T13:00:58;97529.72;;;7.90;100.00
72721;BME280;60835;50.974;10.322;2023-02-03T13:06:25;97518.19;;;7.83;100.00
72721;BME280;60835;50.974;10.322;2023-02-03T13:11:55;97471.63;;;7.83;100.00
72721;BME280;60835;50.974;10.322;2023-02-03T13:14:31;97454.31;;;7.89;100.00
72721;BME280;60835;50.974;10.322;2023-02-03T13:17:13;97435.44;;;7.93;100.00
72721;BME280;60835;50.974;10.322;2023-02-03T13:19:47;97443.66;;;7.90;100.00
72721;BME280;60835;50.974;10.322;2023-02-03T13:22:15;97438.53;;;7.89;100.00
72721;BME280;60835;50.974;10.322;2023-02-03T13:24:52;97436.56;;;7.91;100.00
72721;BME280;60835;50.974;10.322;2023-02-03T13:33:25;97394.25;;;7.84;100.00
72721;BME280;60835;50.974;10.322;2023-02-03T13:38:51;97352.97;;;7.85;100.00
72721;BME280;60835;50.974;10.322;2023-02-03T13:43:56;97309.53;;;7.81;100.00
72721;BME280;60835;50.974;10.322;2023-02-03T13:46:30;97300.63;;;7.82;100.00
72721;BME280;60835;50.974;10.322;2023-02-03T13:49:00;97291.56;;;7.84;100.00
72721;BME280;60835;50.974;10.322;2023-02-03T13:51:31;97287.47;;;7.82;100.00
72721;BME280;60835;50.974;10.322;2023-02-03T13:54:03;97270.19;;;7.79;100.00
72721;BME280;60835;50.974;10.322;2023-02-03T13:56:31;97276.59;;;7.77;100.00
72721;BME280;60835;50.974;10.322;2023-02-03T14:04:54;97257.53;;;7.75;100.00
72721;BME280;60835;50.974;10.322;2023-02-03T14:07:36;97239.41;;;7.72;100.00
72721;BME280;60835;50.974;10.322;2023-02-03T14:15:29;97218.53;;;7.70;100.00
72721;BME280;60835;50.974;10.322;2023-02-03T14:18:00;97232.34;;;7.72;100.00
72721;BME280;60835;50.974;10.322;2023-02-03T14:23:08;97212.59;;;7.76;100.00
72721;BME280;60835;50.974;10.322;2023-02-03T14:25:54;97233.19;;;7.73;100.00
72721;BME280;60835;50.974;10.322;2023-02-03T14:28:39;97240.25;;;7.72;100.00
72721;BME280;60835;50.974;10.322;2023-02-03T14:31:09;97248.97;;;7.81;100.00
72721;BME280;60835;50.974;10.322;2023-02-03T14:41:56;97481.78;;;7.78;100.00
72721;BME280;60835;50.974;10.322;2023-02-03T14:47:34;97615.41;;;7.76;100.00
72721;BME280;60835;50.974;10.322;2023-02-03T14:50:25;97645.50;;;7.74;100.00
72721;BME280;60835;50.974;10.322;2023-02-03T14:56:06;97747.81;;;7.69;100.00
72721;BME280;60835;50.974;10.322;2023-02-03T15:06:42;97875.09;;;7.60;100.00
72721;BME280;60835;50.974;10.322;2023-02-03T15:09:30;97891.69;;;7.60;100.00